Time;durP1;ratioP1;P1;durP2;ratioP2;P2;SDS_P1;SDS_P2;PMS_P1;PMS_P2;Temp;Humidity;BMP_temperature;BMP_pressure;BME280_temperature;BME280_humidity;BME280_pressure;Samples;Min_cycle;Max_cycle;Signal;HPM_P1;HPM_P2
2023/07/26 00:01:54;;;;;;;74.90;71.20;;;;;;;22.27;40.16;101033.94;4985145;28;20149;-78
2023/07/26 00:04:19;;;;;;;73.95;70.45;;;;;;;22.25;39.98;101038.94;4983767;28;20360;-77
2023/07/26 00:06:44;;;;;;;73.88;70.38;;;;;;;22.23;40.15;101041.22;5002830;28;20482;-76
2023/07/26 00:09:10;;;;;;;73.72;70.35;;;;;;;22.22;40.12;101039.59;4993622;28;20117;-78
2023/07/26 00:11:36;;;;;;;74.53;71.13;;;;;;;22.20;40.23;101047.34;4974156;28;20039;-77
2023/07/26 00:14:06;;;;;;;73.82;70.32;;;;;;;22.20;40.29;101041.84;4978817;28;20038;-77
2023/07/26 00:16:32;;;;;;;72.82;69.45;;;;;;;22.17;40.22;101037.75;4992781;28;20042;-77
2023/07/26 00:18:58;;;;;;;76.63;72.97;;;;;;;22.16;40.27;101040.81;4994334;28;20331;-77
2023/07/26 00:21:23;;;;;;;74.70;71.05;;;;;;;22.14;39.99;101034.81;4999432;28;20541;-78
2023/07/26 00:23:49;;;;;;;72.18;68.75;;;;;;;22.11;40.52;101029.94;5002186;28;20039;-77
2023/07/26 00:26:14;;;;;;;73.95;70.53;;;;;;;22.11;40.34;101038.19;4984102;28;20053;-77
2023/07/26 00:28:39;;;;;;;72.28;68.88;;;;;;;22.08;40.03;101031.38;4986978;28;20634;-77
2023/07/26 00:31:05;;;;;;;72.95;69.32;;;;;;;22.07;40.44;101032.50;4994666;28;20046;-77
2023/07/26 00:33:30;;;;;;;76.63;72.68;;;;;;;22.06;40.51;101028.13;4992358;28;20057;-76
2023/07/26 00:35:56;;;;;;;72.38;68.88;;;;;;;22.04;40.28;101031.19;4992332;28;20435;-76
2023/07/26 00:38:21;;;;;;;72.88;69.53;;;;;;;22.02;40.15;101029.88;4993605;28;20092;-77
2023/07/26 00:40:47;;;;;;;71.35;68.03;;;;;;;22.00;40.00;101037.66;4992867;28;20030;-77
2023/07/26 00:43:13;;;;;;;73.97;70.57;;;;;;;21.99;40.65;101028.56;4989269;28;20184;-77
2023/07/26 00:45:41;;;;;;;69.93;66.28;;;;;;;21.97;40.60;101032.75;4991181;28;20467;-77
2023/07/26 00:48:09;;;;;;;71.32;67.93;;;;;;;21.95;40.25;101026.78;4987430;28;20030;-77
2023/07/26 00:50:35;;;;;;;70.65;67.32;;;;;;;21.93;40.08;101027.06;4973497;28;20041;-77
2023/07/26 00:53:02;;;;;;;73.60;69.80;;;;;;;21.92;40.34;101024.63;4984244;28;20049;-78
2023/07/26 00:55:27;;;;;;;73.22;69.57;;;;;;;21.92;40.53;101030.13;4976568;28;20073;-77
2023/07/26 00:57:55;;;;;;;71.60;68.25;;;;;;;21.89;40.57;101025.25;4994448;28;20031;-77
2023/07/26 01:00:20;;;;;;;73.65;69.90;;;;;;;21.88;40.49;101026.38;4992252;28;20034;-78
2023/07/26 01:02:46;;;;;;;71.55;68.10;;;;;;;21.86;40.41;101029.44;4998202;28;20038;-77
2023/07/26 01:05:12;;;;;;;70.63;67.35;;;;;;;21.85;40.46;101030.56;4997915;28;20034;-78
2023/07/26 01:07:46;;;;;;;70.75;67.45;;;;;;;21.82;40.89;101026.50;4984135;28;20096;-78
2023/07/26 01:10:20;;;;;;;72.20;68.90;;;;;;;21.81;41.10;101038.63;4991952;28;20104;-77
2023/07/26 01:13:03;;;;;;;70.78;67.22;;;;;;;21.79;40.75;101040.06;4991159;28;20121;-78
2023/07/26 01:15:32;;;;;;;71.72;68.32;;;;;;;21.77;40.94;101039.53;4992705;28;20037;-77
2023/07/26 01:18:09;;;;;;;73.07;69.57;;;;;;;21.75;41.06;101044.56;5008365;28;20031;-77
2023/07/26 01:20:34;;;;;;;71.03;67.43;;;;;;;21.74;40.52;101046.47;4987439;28;20471;-77
2023/07/26 01:22:59;;;;;;;72.05;68.65;;;;;;;21.71;40.53;101041.59;5003494;28;20042;-76
2023/07/26 01:25:25;;;;;;;71.45;68.05;;;;;;;21.70;40.67;101037.25;5020847;28;20034;-79
2023/07/26 01:27:50;;;;;;;71.93;68.53;;;;;;;21.69;41.02;101040.28;4990396;28;20039;-77
2023/07/26 01:30:16;;;;;;;68.55;65.05;;;;;;;21.68;41.21;101038.69;4956776;28;20062;-76
2023/07/26 01:32:43;;;;;;;68.95;65.45;;;;;;;21.66;41.25;101040.91;4982927;28;20030;-76
2023/07/26 01:35:09;;;;;;;71.32;67.95;;;;;;;21.64;41.07;101041.22;4983345;28;20043;-77
2023/07/26 01:37:36;;;;;;;70.68;67.22;;;;;;;21.63;40.70;101036.06;4964139;28;20310;-77
2023/07/26 01:40:03;;;;;;;70.30;66.75;;;;;;;21.61;40.88;101028.09;4991042;28;20466;-78
2023/07/26 01:42:29;;;;;;;72.40;68.20;;;;;;;21.60;41.17;101023.75;4981545;28;20060;-77
2023/07/26 01:44:54;;;;;;;69.88;66.57;;;;;;;21.58;40.81;101023.22;4988311;28;20448;-77
2023/07/26 01:47:20;;;;;;;71.07;67.68;;;;;;;21.57;41.11;101025.16;4988610;28;20161;-77
2023/07/26 01:49:45;;;;;;;70.40;67.10;;;;;;;21.56;40.95;101017.22;4992255;28;20034;-77
2023/07/26 01:52:10;;;;;;;70.07;66.78;;;;;;;21.54;41.37;101013.97;4992556;28;20463;-77
2023/07/26 01:54:36;;;;;;;69.88;66.55;;;;;;;21.52;41.20;101016.19;4983942;28;20470;-77
2023/07/26 01:57:01;;;;;;;70.03;66.38;;;;;;;21.51;41.00;101022.84;4985900;28;20042;-77
2023/07/26 01:59:27;;;;;;;70.13;66.72;;;;;;;21.48;41.38;101024.28;4992158;28;20026;-77
2023/07/26 02:01:52;;;;;;;67.22;64.07;;;;;;;21.48;41.47;101024.28;4992286;28;20450;-78
2023/07/26 02:04:19;;;;;;;67.55;64.35;;;;;;;21.46;41.38;101028.44;4990836;28;20434;-83
2023/07/26 02:06:44;;;;;;;69.43;66.15;;;;;;;21.44;41.16;101033.44;5001186;28;20048;-77
2023/07/26 02:09:10;;;;;;;68.72;65.43;;;;;;;21.43;41.38;101029.06;4948683;28;20121;-78
2023/07/26 02:11:35;;;;;;;71.57;68.18;;;;;;;21.42;40.96;101027.44;4990530;28;20034;-77
2023/07/26 02:14:01;;;;;;;70.30;67.00;;;;;;;21.39;40.96;101029.69;4980067;28;20101;-77
2023/07/26 02:16:26;;;;;;;68.07;64.85;;;;;;;21.38;41.17;101035.47;4986277;28;20025;-77
2023/07/26 02:18:52;;;;;;;69.10;65.90;;;;;;;21.36;41.56;101033.00;4992772;28;20077;-77
2023/07/26 02:21:17;;;;;;;67.07;63.90;;;;;;;21.34;41.04;101048.19;4977048;28;20039;-77
2023/07/26 02:23:43;;;;;;;67.35;64.03;;;;;;;21.32;41.16;101059.50;4971510;28;20027;-76
2023/07/26 02:26:08;;;;;;;68.47;65.28;;;;;;;21.31;41.38;101057.84;4988475;28;20035;-77
2023/07/26 02:28:34;;;;;;;67.68;64.47;;;;;;;21.29;41.18;101054.63;5009983;28;20031;-77
2023/07/26 02:30:59;;;;;;;65.47;62.10;;;;;;;21.28;41.24;101050.22;4990804;28;20041;-77
2023/07/26 02:33:25;;;;;;;70.40;67.07;;;;;;;21.26;41.62;101037.91;4989385;28;20036;-79
2023/07/26 02:35:50;;;;;;;65.55;62.55;;;;;;;21.24;41.80;101038.22;4982579;28;20031;-79
2023/07/26 02:38:15;;;;;;;65.55;62.47;;;;;;;21.23;41.26;101033.03;4972717;28;20057;-79
2023/07/26 02:40:41;;;;;;;67.15;64.05;;;;;;;21.21;41.29;101029.78;5002122;28;20216;-79
2023/07/26 02:43:06;;;;;;;65.90;62.60;;;;;;;21.20;41.45;101033.66;4988005;28;20471;-79
2023/07/26 02:45:32;;;;;;;66.72;63.58;;;;;;;21.18;41.92;101034.78;4972662;28;20493;-79
2023/07/26 02:47:57;;;;;;;68.05;64.90;;;;;;;21.16;41.44;101028.75;4978684;28;20034;-79
2023/07/26 02:50:23;;;;;;;65.70;62.60;;;;;;;21.15;41.68;101026.34;5006662;28;20054;-82
2023/07/26 02:52:48;;;;;;;67.10;63.92;;;;;;;21.13;41.89;101026.63;4991695;28;20038;-78
2023/07/26 02:55:14;;;;;;;66.55;63.35;;;;;;;21.12;42.03;101026.97;4982377;28;20058;-80
2023/07/26 02:57:39;;;;;;;67.82;64.60;;;;;;;21.12;41.64;101024.22;4983212;28;20039;-79
2023/07/26 03:00:05;;;;;;;66.97;63.78;;;;;;;21.09;41.79;101022.91;4988208;28;20073;-79
2023/07/26 03:02:31;;;;;;;66.55;63.35;;;;;;;21.07;41.98;101027.88;4971114;28;20051;-80
2023/07/26 03:04:56;;;;;;;63.53;60.53;;;;;;;21.07;41.93;101018.81;4975079;28;20046;-79
2023/07/26 03:07:22;;;;;;;67.57;64.22;;;;;;;21.04;41.71;101023.00;4988911;28;20162;-79
2023/07/26 03:09:47;;;;;;;65.90;62.70;;;;;;;21.04;41.71;101020.25;4972344;28;20039;-78
2023/07/26 03:12:13;;;;;;;64.15;61.05;;;;;;;21.02;42.22;101032.66;4976711;28;20475;-79
2023/07/26 03:14:40;;;;;;;67.50;64.22;;;;;;;21.01;42.00;101028.28;4990746;28;20045;-78
2023/07/26 03:17:07;;;;;;;63.97;60.95;;;;;;;20.99;42.12;101025.84;5011540;28;20041;-79
2023/07/26 03:19:33;;;;;;;65.40;61.80;;;;;;;20.96;42.31;101027.28;4986221;28;20031;-78
2023/07/26 03:21:58;;;;;;;67.10;63.97;;;;;;;20.96;42.42;101034.69;4982614;28;20041;-80
2023/07/26 03:24:24;;;;;;;67.80;64.50;;;;;;;20.94;42.02;101034.16;4994507;28;20039;-79
2023/07/26 03:26:49;;;;;;;65.32;62.22;;;;;;;20.92;42.17;101037.25;4977380;28;20027;-79
2023/07/26 03:29:15;;;;;;;65.72;62.33;;;;;;;20.90;42.15;101033.16;4995136;28;20053;-79
2023/07/26 03:31:40;;;;;;;67.40;64.10;;;;;;;20.89;42.09;101037.00;4994596;28;20125;-79
2023/07/26 03:34:05;;;;;;;66.47;63.38;;;;;;;20.87;42.38;101037.34;4998965;28;20463;-79
2023/07/26 03:36:31;;;;;;;65.88;62.72;;;;;;;20.86;42.24;101040.38;4974922;28;20048;-80
2023/07/26 03:38:56;;;;;;;66.10;62.50;;;;;;;20.85;42.21;101033.28;4990637;28;20042;-78
2023/07/26 03:41:22;;;;;;;67.97;64.68;;;;;;;20.83;42.29;101032.75;4975963;28;20035;-80
2023/07/26 03:43:47;;;;;;;66.32;63.13;;;;;;;20.80;42.34;101036.94;4974096;28;20038;-78
2023/07/26 03:46:13;;;;;;;66.43;63.25;;;;;;;20.79;42.41;101034.47;4969814;28;20074;-78
2023/07/26 03:48:38;;;;;;;67.15;63.85;;;;;;;20.77;42.54;101034.00;4982825;28;20391;-78
2023/07/26 03:51:03;;;;;;;67.20;63.85;;;;;;;20.76;42.50;101035.91;4998230;28;20034;-77
2023/07/26 03:53:29;;;;;;;65.68;62.38;;;;;;;20.73;42.75;101037.31;4991838;28;20080;-79
2023/07/26 03:55:54;;;;;;;65.63;62.40;;;;;;;20.72;42.74;101041.19;4994383;28;20194;-78
2023/07/26 03:58:20;;;;;;;65.43;62.13;;;;;;;20.71;42.72;101038.75;4977590;28;20038;-79
2023/07/26 04:00:45;;;;;;;65.07;61.88;;;;;;;20.69;42.77;101039.06;4979968;28;20048;-78
2023/07/26 04:03:10;;;;;;;63.85;60.75;;;;;;;20.67;43.00;101045.97;4992093;28;20035;-79
2023/07/26 04:05:36;;;;;;;67.78;64.47;;;;;;;20.65;42.68;101040.78;4982652;28;20026;-78
2023/07/26 04:08:01;;;;;;;66.18;62.78;;;;;;;20.63;42.55;101034.78;4989878;28;20034;-78
2023/07/26 04:10:28;;;;;;;68.47;64.70;;;;;;;20.61;42.80;101037.00;4985668;28;20459;-77
2023/07/26 04:12:53;;;;;;;66.22;62.53;;;;;;;20.60;42.86;101035.38;4958510;28;20030;-80
2023/07/26 04:15:19;;;;;;;66.22;62.90;;;;;;;20.58;43.05;101034.88;4979215;28;20453;-78
2023/07/26 04:17:44;;;;;;;65.70;62.30;;;;;;;20.57;43.08;101033.25;4993866;28;20031;-79
2023/07/26 04:20:10;;;;;;;65.35;61.20;;;;;;;20.55;43.22;101031.94;5009187;28;20038;-79
2023/07/26 04:22:35;;;;;;;66.20;62.60;;;;;;;20.53;42.73;101029.44;4980794;28;20039;-77
2023/07/26 04:25:01;;;;;;;65.45;62.22;;;;;;;20.51;42.81;101028.94;4984911;28;20393;-78
2023/07/26 04:27:26;;;;;;;64.70;61.20;;;;;;;20.49;43.19;101040.22;4994243;28;20501;-76
2023/07/26 04:29:52;;;;;;;66.55;63.08;;;;;;;20.48;43.14;101032.28;4979661;28;20027;-77
2023/07/26 04:32:17;;;;;;;62.80;59.80;;;;;;;20.46;43.23;101035.34;4995286;28;20418;-76
2023/07/26 04:34:43;;;;;;;62.58;59.50;;;;;;;20.45;43.09;101035.63;4992551;28;20034;-77
2023/07/26 04:37:08;;;;;;;63.35;59.78;;;;;;;20.43;42.84;101029.63;4990022;28;20098;-77
2023/07/26 04:39:34;;;;;;;63.72;60.42;;;;;;;20.41;43.30;101037.34;4974959;28;20384;-78
2023/07/26 04:41:59;;;;;;;63.50;60.30;;;;;;;20.40;43.44;101035.72;4979725;28;20062;-77
2023/07/26 04:44:25;;;;;;;65.70;62.20;;;;;;;20.38;43.19;101035.22;4977525;28;20041;-77
2023/07/26 04:46:50;;;;;;;67.70;64.30;;;;;;;20.36;43.04;101032.78;4993447;28;20352;-77
2023/07/26 04:49:15;;;;;;;63.60;60.50;;;;;;;20.34;43.10;101040.50;4992636;28;20050;-78
2023/07/26 04:51:41;;;;;;;66.05;62.78;;;;;;;20.33;43.18;101038.84;4991747;28;20478;-77
2023/07/26 04:54:06;;;;;;;64.40;61.22;;;;;;;20.32;43.38;101037.22;4959879;28;20046;-76
2023/07/26 04:56:31;;;;;;;64.70;61.20;;;;;;;20.30;43.16;101037.53;4992745;28;20037;-77
2023/07/26 04:58:57;;;;;;;65.72;62.15;;;;;;;20.29;43.45;101032.34;4983212;28;20089;-77
2023/07/26 05:01:23;;;;;;;63.22;60.03;;;;;;;20.27;43.44;101029.91;4985539;28;20062;-75
2023/07/26 05:03:49;;;;;;;62.33;59.22;;;;;;;20.26;43.12;101031.03;5008535;28;20038;-78
2023/07/26 05:06:15;;;;;;;63.63;60.33;;;;;;;20.25;43.27;101028.56;4993914;28;20042;-77
2023/07/26 05:08:40;;;;;;;63.60;60.15;;;;;;;20.24;43.16;101032.44;4991560;28;20037;-77
2023/07/26 05:11:06;;;;;;;63.78;60.60;;;;;;;20.23;43.72;101030.81;4980063;28;20035;-76
2023/07/26 05:13:31;;;;;;;64.63;61.47;;;;;;;20.22;43.44;101026.44;4985383;28;20030;-76
2023/07/26 05:15:57;;;;;;;64.85;61.33;;;;;;;20.21;43.51;101033.88;4977503;28;20105;-75
2023/07/26 05:18:22;;;;;;;63.45;60.33;;;;;;;20.19;43.78;101038.81;4976126;28;20047;-76
2023/07/26 05:20:50;;;;;;;65.22;61.83;;;;;;;20.17;43.69;101035.56;4993379;28;20381;-75
2023/07/26 05:23:16;;;;;;;64.40;61.20;;;;;;;20.17;43.59;101038.31;4992798;28;21446;-75
2023/07/26 05:25:41;;;;;;;61.88;58.53;;;;;;;20.15;43.80;101037.78;5007000;28;20026;-77
2023/07/26 05:28:07;;;;;;;63.35;60.22;;;;;;;20.15;43.77;101032.31;4996457;28;20128;-77
2023/07/26 05:30:40;;;;;;;61.88;58.45;;;;;;;20.15;43.42;101031.50;4988260;28;20487;-77
2023/07/26 05:33:06;;;;;;;63.10;59.90;;;;;;;20.14;43.86;101041.66;4984679;28;20038;-77
2023/07/26 05:35:32;;;;;;;61.75;58.72;;;;;;;20.14;43.90;101046.34;4990680;28;20495;-77
2023/07/26 05:37:57;;;;;;;65.28;61.72;;;;;;;20.14;43.87;101046.34;4991256;28;20129;-76
2023/07/26 05:40:23;;;;;;;61.80;58.75;;;;;;;20.13;43.41;101048.22;4983935;28;20028;-75
2023/07/26 05:42:49;;;;;;;62.20;58.78;;;;;;;20.13;43.82;101050.97;4989316;28;20046;-75
2023/07/26 05:45:15;;;;;;;62.95;59.30;;;;;;;20.12;43.68;101048.56;4990893;28;20046;-76
2023/07/26 05:47:40;;;;;;;63.53;60.25;;;;;;;20.12;43.56;101049.38;4973739;28;20130;-76
2023/07/26 05:50:06;;;;;;;65.20;61.72;;;;;;;20.12;44.01;101052.09;4987219;28;20038;-76
2023/07/26 05:52:32;;;;;;;60.83;57.75;;;;;;;20.11;43.75;101055.97;4991584;28;20030;-78
2023/07/26 05:54:57;;;;;;;63.00;59.88;;;;;;;20.12;43.96;101048.56;4992155;28;20089;-76
2023/07/26 05:57:23;;;;;;;64.00;60.45;;;;;;;20.11;44.07;101050.50;4986633;28;20035;-76
2023/07/26 05:59:48;;;;;;;64.47;61.28;;;;;;;20.11;43.87;101058.72;4964804;28;20398;-76
2023/07/26 06:02:14;;;;;;;63.00;59.85;;;;;;;20.10;43.68;101063.38;4992535;28;20130;-78
2023/07/26 06:04:39;;;;;;;62.10;58.92;;;;;;;20.10;44.08;101073.53;4985282;28;20042;-76
2023/07/26 06:07:05;;;;;;;64.65;61.05;;;;;;;20.09;43.63;101072.72;4982609;28;20031;-76
2023/07/26 06:09:30;;;;;;;62.08;58.78;;;;;;;20.09;44.19;101071.91;4973619;28;20522;-77
2023/07/26 06:11:55;;;;;;;66.50;63.20;;;;;;;20.09;44.29;101074.66;4986022;28;20184;-76
2023/07/26 06:14:23;;;;;;;61.85;58.55;;;;;;;20.10;44.13;101076.25;4990802;28;20449;-75
2023/07/26 06:16:48;;;;;;;63.33;60.10;;;;;;;20.09;43.82;101077.38;4983495;28;20039;-74
2023/07/26 06:19:14;;;;;;;65.65;62.25;;;;;;;20.09;43.86;101077.38;4973053;28;20031;-76
2023/07/26 06:21:39;;;;;;;64.53;61.03;;;;;;;20.09;43.81;101089.16;4977682;28;20534;-76
2023/07/26 06:24:05;;;;;;;65.43;62.08;;;;;;;20.09;43.88;101091.09;4987021;28;20450;-77
2023/07/26 06:26:30;;;;;;;63.30;60.00;;;;;;;20.09;44.29;101094.66;4972305;28;20041;-76
2023/07/26 06:28:55;;;;;;;62.00;58.58;;;;;;;20.09;44.00;101093.84;4974997;28;20043;-77
2023/07/26 06:31:21;;;;;;;64.03;60.47;;;;;;;20.09;44.42;101093.84;4983220;28;20597;-78
2023/07/26 06:33:46;;;;;;;63.83;60.50;;;;;;;20.10;43.95;101098.22;4987818;28;20037;-76
2023/07/26 06:36:12;;;;;;;60.17;56.85;;;;;;;20.09;44.47;101097.41;4989615;28;20061;-77
2023/07/26 06:38:37;;;;;;;63.22;59.53;;;;;;;20.10;44.45;101098.22;4968962;28;20042;-75
2023/07/26 06:41:04;;;;;;;64.35;60.65;;;;;;;20.09;44.20;101100.13;4989388;28;20120;-77
2023/07/26 06:43:30;;;;;;;62.33;59.08;;;;;;;20.09;43.96;101102.06;4991580;28;20066;-77
2023/07/26 06:45:55;;;;;;;64.50;61.08;;;;;;;20.09;44.47;101107.56;4988972;28;20569;-77
2023/07/26 06:48:20;;;;;;;64.45;60.95;;;;;;;20.10;44.41;101106.44;4987730;28;20039;-77
2023/07/26 06:50:46;;;;;;;64.50;61.20;;;;;;;20.10;44.34;101106.44;4972301;28;20035;-81
2023/07/26 06:53:11;;;;;;;61.55;58.35;;;;;;;20.09;44.20;101119.34;4975752;28;20050;-77
2023/07/26 06:55:38;;;;;;;62.72;59.20;;;;;;;20.09;44.28;101116.59;4975757;28;20035;-77
2023/07/26 06:58:05;;;;;;;64.78;61.38;;;;;;;20.09;44.48;101115.78;4991913;28;20027;-76
2023/07/26 07:00:30;;;;;;;63.90;60.63;;;;;;;20.09;44.22;101124.00;4992482;28;20039;-76
2023/07/26 07:02:56;;;;;;;64.68;61.17;;;;;;;20.09;44.52;101124.00;4990769;28;20084;-77
2023/07/26 07:05:22;;;;;;;64.70;61.35;;;;;;;20.09;44.50;101126.75;4991310;28;20041;-78
2023/07/26 07:07:48;;;;;;;63.03;59.63;;;;;;;20.09;44.60;101133.03;4992020;28;20177;-79
2023/07/26 07:10:13;;;;;;;63.05;59.72;;;;;;;20.10;44.42;101131.13;4991220;28;20509;-78
2023/07/26 07:12:39;;;;;;;63.30;59.38;;;;;;;20.09;44.45;101133.03;4992698;28;20035;-79
2023/07/26 07:15:05;;;;;;;64.03;60.63;;;;;;;20.10;44.78;101131.13;4989799;28;20478;-75
2023/07/26 07:17:31;;;;;;;64.60;60.92;;;;;;;20.09;44.68;101130.31;4989741;28;20562;-75
2023/07/26 07:19:56;;;;;;;62.10;58.85;;;;;;;20.09;44.69;101134.97;5007851;28;20121;-77
2023/07/26 07:22:22;;;;;;;61.45;58.17;;;;;;;20.09;44.68;101138.53;4991895;28;20426;-74
2023/07/26 07:24:47;;;;;;;62.25;58.05;;;;;;;20.10;44.87;101147.56;4993352;28;20471;-77
2023/07/26 07:27:13;;;;;;;63.75;60.08;;;;;;;20.09;44.54;101138.53;4990839;28;20046;-77
2023/07/26 07:29:39;;;;;;;62.15;58.85;;;;;;;20.09;45.01;101130.31;4992018;28;20050;-74
2023/07/26 07:32:05;;;;;;;64.45;61.05;;;;;;;20.10;44.94;101136.59;4991780;28;20422;-74
2023/07/26 07:34:30;;;;;;;61.97;58.58;;;;;;;20.10;44.86;101145.63;4990343;28;20050;-81
2023/07/26 07:36:55;;;;;;;65.25;60.97;;;;;;;20.12;44.83;101144.53;4987334;28;20506;-75
2023/07/26 07:39:21;;;;;;;60.40;57.45;;;;;;;20.12;44.97;101142.59;4989729;28;20035;-83
2023/07/26 07:41:46;;;;;;;64.32;60.63;;;;;;;20.12;44.79;101150.03;5019609;28;20039;-75
2023/07/26 07:44:12;;;;;;;63.08;59.22;;;;;;;20.13;44.92;101144.22;4988524;28;20084;-75
2023/07/26 07:46:37;;;;;;;61.53;57.90;;;;;;;20.13;45.22;101138.75;4992174;28;20038;-76
2023/07/26 07:49:03;;;;;;;65.43;62.03;;;;;;;20.14;44.93;101145.88;5007487;28;20509;-76
2023/07/26 07:51:28;;;;;;;63.53;60.22;;;;;;;20.16;44.77;101146.41;4990920;28;20062;-78
2023/07/26 07:53:53;;;;;;;64.40;60.55;;;;;;;20.17;44.82;101148.00;4984390;28;20066;-77
2023/07/26 07:56:19;;;;;;;63.95;60.25;;;;;;;20.19;45.14;101145.78;4987629;28;20218;-76
2023/07/26 07:58:44;;;;;;;63.65;60.17;;;;;;;20.19;45.15;101148.53;4990820;28;20034;-76
2023/07/26 08:01:10;;;;;;;65.95;62.28;;;;;;;20.22;45.26;101155.34;4989592;28;20399;-81
2023/07/26 08:03:35;;;;;;;64.72;60.80;;;;;;;20.22;45.13;101150.69;4988999;28;20046;-75
2023/07/26 08:06:01;;;;;;;63.95;60.65;;;;;;;20.25;45.13;101149.28;4990050;28;20118;-76
2023/07/26 08:08:26;;;;;;;65.70;62.00;;;;;;;20.27;45.48;101155.28;4989446;28;20053;-74
2023/07/26 08:10:52;;;;;;;62.20;58.67;;;;;;;20.29;45.72;101150.31;4991362;28;20478;-74
2023/07/26 08:13:17;;;;;;;64.72;61.17;;;;;;;20.30;45.27;101147.25;4993307;28;20121;-71
2023/07/26 08:15:43;;;;;;;63.72;60.47;;;;;;;20.32;45.84;101147.78;4985997;28;20077;-80
2023/07/26 08:18:08;;;;;;;65.43;61.22;;;;;;;20.35;46.24;101148.31;4989005;28;20201;-76
2023/07/26 08:20:35;;;;;;;61.03;58.08;;;;;;;20.36;45.92;101139.78;4991843;28;20125;-76
2023/07/26 08:23:01;;;;;;;63.13;59.53;;;;;;;20.39;46.13;101141.13;4974141;28;20038;-79
2023/07/26 08:25:27;;;;;;;61.50;58.42;;;;;;;20.42;45.91;101146.00;4994980;28;20438;-78
2023/07/26 08:27:52;;;;;;;58.40;55.45;;;;;;;20.45;45.86;101139.91;4991084;28;20089;-78
2023/07/26 08:30:18;;;;;;;63.17;59.63;;;;;;;20.48;46.24;101142.84;4990365;28;20035;-77
2023/07/26 08:32:43;;;;;;;60.83;57.63;;;;;;;20.52;46.27;101152.13;4990822;28;20042;-77
2023/07/26 08:35:08;;;;;;;65.70;61.78;;;;;;;20.57;46.26;101142.22;4974967;28;20139;-77
2023/07/26 08:37:34;;;;;;;65.93;62.42;;;;;;;20.60;46.40;101139.69;4987791;28;20478;-79
2023/07/26 08:40:00;;;;;;;69.28;65.65;;;;;;;20.65;46.04;101144.28;4991864;28;20042;-77
2023/07/26 08:42:26;;;;;;;66.28;62.75;;;;;;;20.70;46.67;101155.16;4988791;28;20049;-76
2023/07/26 08:44:53;;;;;;;64.97;61.65;;;;;;;20.73;46.36;101152.63;4994016;28;20026;-76
2023/07/26 08:47:22;;;;;;;64.20;60.30;;;;;;;20.78;46.32;101151.72;4987594;28;20038;-78
2023/07/26 08:49:50;;;;;;;66.03;62.58;;;;;;;20.82;46.04;101155.50;4990454;28;20490;-77
2023/07/26 08:52:17;;;;;;;65.05;61.60;;;;;;;20.85;46.40;101160.38;4989520;28;20237;-77
2023/07/26 08:54:44;;;;;;;66.13;62.60;;;;;;;20.90;45.96;101156.72;4986987;28;20030;-78
2023/07/26 08:57:09;;;;;;;67.30;63.80;;;;;;;20.94;46.27;101160.47;4988131;28;20088;-79
2023/07/26 08:59:35;;;;;;;66.85;63.35;;;;;;;20.99;46.32;101154.09;4984101;28;20039;-79
2023/07/26 09:02:03;;;;;;;67.15;63.88;;;;;;;21.02;46.00;101151.56;4990895;28;20095;-79
2023/07/26 09:04:32;;;;;;;67.30;63.63;;;;;;;21.05;46.44;101148.22;4991044;28;20513;-75
2023/07/26 09:07:05;;;;;;;67.22;63.90;;;;;;;21.10;46.37;101161.03;4986432;28;20035;-79
2023/07/26 09:09:32;;;;;;;67.53;64.05;;;;;;;21.14;46.25;101162.03;4989270;28;20037;-75
2023/07/26 09:11:58;;;;;;;66.63;63.13;;;;;;;21.16;46.50;101177.09;4988854;28;20034;-86
2023/07/26 09:14:28;;;;;;;67.85;63.83;;;;;;;21.21;46.06;101158.91;4991614;28;20112;-85
2023/07/26 09:16:56;;;;;;;68.78;64.70;;;;;;;21.24;46.64;101164.59;4987998;28;20449;-75
2023/07/26 09:19:30;;;;;;;66.85;63.05;;;;;;;21.27;46.23;101149.44;4991306;28;20500;-75
2023/07/26 09:22:00;;;;;;;68.20;64.75;;;;;;;21.30;46.48;101157.91;4989323;28;20510;-75
2023/07/26 09:24:49;;;;;;;68.45;64.82;;;;;;;21.34;46.77;101158.09;4989257;28;20116;-74
2023/07/26 09:27:14;;;;;;;68.30;64.70;;;;;;;21.35;46.67;101152.31;4991004;28;20101;-75
2023/07/26 09:29:52;;;;;;;68.93;65.32;;;;;;;21.37;46.60;101155.56;5007532;28;20042;-76
2023/07/26 09:32:26;;;;;;;71.00;66.85;;;;;;;21.41;46.61;101157.72;4991829;28;20042;-80
2023/07/26 09:34:51;;;;;;;70.65;66.68;;;;;;;21.43;46.27;101155.50;4992132;28;20392;-75
2023/07/26 09:37:21;;;;;;;71.70;68.13;;;;;;;21.45;46.66;101150.50;4991911;28;20177;-75
2023/07/26 09:39:46;;;;;;;69.75;66.40;;;;;;;21.46;46.48;101144.69;4992122;28;20061;-80
2023/07/26 09:42:12;;;;;;;69.50;65.78;;;;;;;21.46;46.84;101146.63;4991751;28;20478;-75
2023/07/26 09:44:37;;;;;;;71.00;67.50;;;;;;;21.46;46.91;101139.19;4990495;28;20034;-75
2023/07/26 09:47:04;;;;;;;70.15;66.65;;;;;;;21.47;46.81;101137.25;4991938;28;20100;-76
2023/07/26 09:49:30;;;;;;;67.90;64.55;;;;;;;21.48;46.95;101131.47;4988672;28;20072;-75
2023/07/26 09:52:01;;;;;;;67.55;64.15;;;;;;;21.52;47.04;101137.97;4973847;28;20031;-75
2023/07/26 09:54:28;;;;;;;70.00;66.55;;;;;;;21.54;46.89;101141.22;4990181;28;20042;-75
2023/07/26 09:56:55;;;;;;;71.25;67.78;;;;;;;21.57;46.82;101132.38;4995464;28;20030;-75
2023/07/26 09:59:27;;;;;;;73.10;69.35;;;;;;;21.58;46.78;101135.94;4986014;28;20417;-79
2023/07/26 10:01:55;;;;;;;69.93;66.35;;;;;;;21.58;46.76;101131.25;4989904;28;20137;-82
2023/07/26 10:04:41;;;;;;;72.15;68.35;;;;;;;21.59;47.24;101132.84;4989269;28;20042;-78
2023/07/26 10:07:10;;;;;;;70.57;66.78;;;;;;;21.60;46.84;101133.69;4991029;28;20466;-77
2023/07/26 10:09:40;;;;;;;71.80;68.32;;;;;;;21.60;47.22;101129.00;4990006;28;20458;-77
2023/07/26 10:12:08;;;;;;;71.32;67.90;;;;;;;21.64;47.57;101137.44;4989128;28;20076;-77
2023/07/26 10:14:35;;;;;;;74.05;70.28;;;;;;;21.65;46.93;101133.59;4990467;28;20042;-75
2023/07/26 10:17:03;;;;;;;72.22;68.63;;;;;;;21.69;47.50;101133.78;4992429;28;20034;-77
2023/07/26 10:19:29;;;;;;;70.47;67.10;;;;;;;21.75;47.39;101135.31;4990885;28;20027;-77
2023/07/26 10:21:57;;;;;;;70.68;67.13;;;;;;;21.79;47.23;101133.53;4991400;28;20026;-77
2023/07/26 10:24:24;;;;;;;74.10;70.57;;;;;;;21.85;46.96;101142.50;4984959;28;20038;-77
2023/07/26 10:26:50;;;;;;;73.20;69.30;;;;;;;21.90;47.20;101134.13;4989519;28;20145;-75
2023/07/26 10:29:20;;;;;;;75.90;72.20;;;;;;;21.94;46.93;101124.94;4992324;28;20043;-75
2023/07/26 10:31:46;;;;;;;75.57;71.82;;;;;;;21.98;47.10;101125.97;4991790;28;20382;-76
2023/07/26 10:34:20;;;;;;;75.72;72.00;;;;;;;22.03;46.76;101130.53;4990763;28;20069;-75
2023/07/26 10:36:46;;;;;;;73.75;70.20;;;;;;;22.08;46.86;101132.38;4985703;28;20106;-73
2023/07/26 10:39:12;;;;;;;74.75;71.20;;;;;;;22.13;46.66;101127.56;4987011;28;20038;-74
2023/07/26 10:41:47;;;;;;;71.10;67.72;;;;;;;22.17;46.83;101134.03;4990504;28;20040;-74
2023/07/26 10:44:12;;;;;;;71.38;67.90;;;;;;;22.23;46.84;101134.78;4984977;28;20038;-75
2023/07/26 10:46:49;;;;;;;71.70;68.35;;;;;;;22.28;46.54;101133.84;4989392;28;20049;-76
2023/07/26 10:49:20;;;;;;;75.72;72.05;;;;;;;22.32;46.70;101130.13;4987622;28;20038;-73
2023/07/26 10:51:57;;;;;;;74.78;71.38;;;;;;;22.39;46.81;101137.97;4987873;28;20497;-73
2023/07/26 10:54:43;;;;;;;74.00;70.50;;;;;;;22.44;46.84;101141.41;4988171;28;20026;-73
2023/07/26 10:57:19;;;;;;;74.15;70.78;;;;;;;22.47;46.28;101135.25;5020827;28;20546;-74
2023/07/26 10:59:59;;;;;;;75.72;72.22;;;;;;;22.55;46.10;101128.19;4986301;28;20081;-74
2023/07/26 11:02:38;;;;;;;77.53;73.68;;;;;;;22.62;45.81;101130.50;4987688;28;20097;-73
2023/07/26 11:05:05;;;;;;;;;;;;;;;22.67;46.09;101130.38;4989928;28;20054;-73
2023/07/26 11:07:49;;;;;;;77.70;74.07;;;;;;;22.73;45.93;101140.16;4987823;28;20341;-74